sensor_id;sensor_type;location;lat;lon;timestamp;pressure;altitude;pressure_sealevel;temperature;humidity
73842;BME280;62184;52.006;5.924;2023-03-05T00:02:23;101438.97;;;8.53;55.64
73842;BME280;62184;52.006;5.924;2023-03-05T00:04:49;101438.06;;;8.52;55.77
73842;BME280;62184;52.006;5.924;2023-03-05T00:07:15;101438.09;;;8.48;55.81
73842;BME280;62184;52.006;5.924;2023-03-05T00:09:42;101429.19;;;8.52;55.86
73842;BME280;62184;52.006;5.924;2023-03-05T00:12:09;101430.91;;;8.58;55.76
73842;BME280;62184;52.006;5.924;2023-03-05T00:14:38;101431.81;;;8.58;55.57
73842;BME280;62184;52.006;5.924;2023-03-05T00:17:05;101427.38;;;8.56;55.63
73842;BME280;62184;52.006;5.924;2023-03-05T00:19:31;101424.72;;;8.56;55.77
73842;BME280;62184;52.006;5.924;2023-03-05T00:21:58;101426.50;;;8.57;55.79
73842;BME280;62184;52.006;5.924;2023-03-05T00:24:24;101424.72;;;8.57;55.86
73842;BME280;62184;52.006;5.924;2023-03-05T00:26:51;101428.25;;;8.58;55.60
73842;BME280;62184;52.006;5.924;2023-03-05T00:29:18;101422.03;;;8.59;55.81
73842;BME280;62184;52.006;5.924;2023-03-05T00:31:48;101424.69;;;8.60;55.85
73842;BME280;62184;52.006;5.924;2023-03-05T00:34:17;101421.09;;;8.63;55.85
73842;BME280;62184;52.006;5.924;2023-03-05T00:36:46;101423.75;;;8.64;55.99
73842;BME280;62184;52.006;5.924;2023-03-05T00:39:15;101416.66;;;8.63;55.92
73842;BME280;62184;52.006;5.924;2023-03-05T00:41:41;101422.00;;;8.63;55.99
73842;BME280;62184;52.006;5.924;2023-03-05T00:44:08;101418.47;;;8.61;56.01
73842;BME280;62184;52.006;5.924;2023-03-05T00:46:35;101409.59;;;8.62;56.11
73842;BME280;62184;52.006;5.924;2023-03-05T00:49:05;101422.00;;;8.63;56.08
73842;BME280;62184;52.006;5.924;2023-03-05T00:51:31;101412.34;;;8.53;56.36
73842;BME280;62184;52.006;5.924;2023-03-05T00:53:58;101412.41;;;8.44;56.94
73842;BME280;62184;52.006;5.924;2023-03-05T00:56:25;101417.72;;;8.45;57.12
73842;BME280;62184;52.006;5.924;2023-03-05T00:58:51;101403.53;;;8.40;57.11
73842;BME280;62184;52.006;5.924;2023-03-05T01:01:18;101400.00;;;8.38;57.35
73842;BME280;62184;52.006;5.924;2023-03-05T01:03:44;101400.88;;;8.37;57.32
73842;BME280;62184;52.006;5.924;2023-03-05T01:06:14;101396.50;;;8.32;57.49
73842;BME280;62184;52.006;5.924;2023-03-05T01:08:41;101397.38;;;8.31;57.58
73842;BME280;62184;52.006;5.924;2023-03-05T01:11:08;101392.06;;;8.31;57.63
73842;BME280;62184;52.006;5.924;2023-03-05T01:13:36;101384.97;;;8.33;57.62
73842;BME280;62184;52.006;5.924;2023-03-05T01:16:03;101380.53;;;8.32;57.48
73842;BME280;62184;52.006;5.924;2023-03-05T01:18:30;101375.19;;;8.33;57.53
73842;BME280;62184;52.006;5.924;2023-03-05T01:20:57;101371.66;;;8.34;57.47
73842;BME280;62184;52.006;5.924;2023-03-05T01:23:26;101371.66;;;8.34;57.54
73842;BME280;62184;52.006;5.924;2023-03-05T01:25:53;101368.09;;;8.34;57.42
73842;BME280;62184;52.006;5.924;2023-03-05T01:28:20;101369.88;;;8.32;57.21
73842;BME280;62184;52.006;5.924;2023-03-05T01:30:46;101363.72;;;8.24;57.33
73842;BME280;62184;52.006;5.924;2023-03-05T01:33:13;101366.44;;;8.18;57.39
73842;BME280;62184;52.006;5.924;2023-03-05T01:35:39;101360.25;;;8.16;57.62
73842;BME280;62184;52.006;5.924;2023-03-05T01:38:06;101359.34;;;8.20;57.54
73842;BME280;62184;52.006;5.924;2023-03-05T01:40:35;101351.34;;;8.20;57.71
73842;BME280;62184;52.006;5.924;2023-03-05T01:43:20;101349.59;;;8.17;57.69
73842;BME280;62184;52.006;5.924;2023-03-05T01:46:16;101344.28;;;8.17;57.71
73842;BME280;62184;52.006;5.924;2023-03-05T01:48:58;101338.94;;;8.17;57.60
73842;BME280;62184;52.006;5.924;2023-03-05T01:51:32;101335.38;;;8.20;57.69
73842;BME280;62184;52.006;5.924;2023-03-05T01:54:04;101329.16;;;8.22;57.66
73842;BME280;62184;52.006;5.924;2023-03-05T01:56:36;101328.25;;;8.25;57.52
73842;BME280;62184;52.006;5.924;2023-03-05T01:59:05;101324.69;;;8.26;57.42
73842;BME280;62184;52.006;5.924;2023-03-05T02:01:36;101324.69;;;8.23;57.47
73842;BME280;62184;52.006;5.924;2023-03-05T02:04:06;101309.69;;;8.19;57.59
73842;BME280;62184;52.006;5.924;2023-03-05T02:06:34;101302.59;;;8.18;57.30
73842;BME280;62184;52.006;5.924;2023-03-05T02:09:01;101308.78;;;8.17;57.57
73842;BME280;62184;52.006;5.924;2023-03-05T02:11:28;101307.03;;;8.16;57.76
73842;BME280;62184;52.006;5.924;2023-03-05T02:13:57;101297.25;;;8.18;57.64
73842;BME280;62184;52.006;5.924;2023-03-05T02:16:24;101298.13;;;8.20;57.49
73842;BME280;62184;52.006;5.924;2023-03-05T02:18:50;101291.94;;;8.18;57.48
73842;BME280;62184;52.006;5.924;2023-03-05T02:21:34;101288.41;;;8.17;57.43
73842;BME280;62184;52.006;5.924;2023-03-05T02:24:03;101286.63;;;8.19;57.38
73842;BME280;62184;52.006;5.924;2023-03-05T02:26:30;101279.53;;;8.15;57.29
73842;BME280;62184;52.006;5.924;2023-03-05T02:28:58;101283.13;;;8.09;57.55
73842;BME280;62184;52.006;5.924;2023-03-05T02:31:28;101282.25;;;8.07;57.59
73842;BME280;62184;52.006;5.924;2023-03-05T02:33:54;101274.28;;;8.07;57.60
73842;BME280;62184;52.006;5.924;2023-03-05T02:36:21;101271.59;;;8.10;57.51
73842;BME280;62184;52.006;5.924;2023-03-05T02:38:50;101274.28;;;8.09;57.00
73842;BME280;62184;52.006;5.924;2023-03-05T02:41:17;101268.06;;;8.08;57.42
73842;BME280;62184;52.006;5.924;2023-03-05T02:43:44;101260.03;;;8.13;57.42
73842;BME280;62184;52.006;5.924;2023-03-05T02:46:10;101264.44;;;8.19;57.17
73842;BME280;62184;52.006;5.924;2023-03-05T02:48:37;101257.31;;;8.21;57.04
73842;BME280;62184;52.006;5.924;2023-03-05T02:51:04;101262.59;;;8.24;57.07
73842;BME280;62184;52.006;5.924;2023-03-05T02:53:32;101251.09;;;8.23;57.01
73842;BME280;62184;52.006;5.924;2023-03-05T02:56:02;101252.84;;;8.26;57.26
73842;BME280;62184;52.006;5.924;2023-03-05T02:58:29;101255.50;;;8.26;56.78
73842;BME280;62184;52.006;5.924;2023-03-05T03:00:55;101245.75;;;8.26;56.86
73842;BME280;62184;52.006;5.924;2023-03-05T03:03:22;101235.13;;;8.25;56.80
73842;BME280;62184;52.006;5.924;2023-03-05T03:05:48;101236.00;;;8.24;56.82
73842;BME280;62184;52.006;5.924;2023-03-05T03:08:14;101232.53;;;8.17;56.90
73842;BME280;62184;52.006;5.924;2023-03-05T03:10:41;101228.09;;;8.14;57.02
73842;BME280;62184;52.006;5.924;2023-03-05T03:13:10;101225.44;;;8.14;56.89
73842;BME280;62184;52.006;5.924;2023-03-05T03:15:36;101224.53;;;8.17;56.87
73842;BME280;62184;52.006;5.924;2023-03-05T03:18:03;101216.56;;;8.19;56.75
73842;BME280;62184;52.006;5.924;2023-03-05T03:20:29;101209.47;;;8.14;56.75
73842;BME280;62184;52.006;5.924;2023-03-05T03:22:56;101209.47;;;8.14;56.81
73842;BME280;62184;52.006;5.924;2023-03-05T03:25:22;101209.53;;;8.11;56.82
73842;BME280;62184;52.006;5.924;2023-03-05T03:27:49;101203.31;;;8.11;56.95
73842;BME280;62184;52.006;5.924;2023-03-05T03:30:18;101200.59;;;8.16;56.89
73842;BME280;62184;52.006;5.924;2023-03-05T03:32:44;101206.81;;;8.18;56.66
73842;BME280;62184;52.006;5.924;2023-03-05T03:35:12;101194.38;;;8.17;56.63
73842;BME280;62184;52.006;5.924;2023-03-05T03:37:38;101194.38;;;8.17;56.51
73842;BME280;62184;52.006;5.924;2023-03-05T03:40:06;101191.72;;;8.20;56.60
73842;BME280;62184;52.006;5.924;2023-03-05T03:42:34;101184.63;;;8.20;56.54
73842;BME280;62184;52.006;5.924;2023-03-05T03:45:01;101185.50;;;8.19;56.65
73842;BME280;62184;52.006;5.924;2023-03-05T03:47:30;101178.41;;;8.20;56.65
73842;BME280;62184;52.006;5.924;2023-03-05T03:49:57;101176.56;;;8.23;56.47
73842;BME280;62184;52.006;5.924;2023-03-05T03:52:23;101173.03;;;8.24;56.34
73842;BME280;62184;52.006;5.924;2023-03-05T03:54:50;101167.72;;;8.21;56.30
73842;BME280;62184;52.006;5.924;2023-03-05T03:57:16;101169.53;;;8.19;56.30
73842;BME280;62184;52.006;5.924;2023-03-05T03:59:43;101169.50;;;8.22;56.44
73842;BME280;62184;52.006;5.924;2023-03-05T04:02:09;101163.28;;;8.22;56.47
73842;BME280;62184;52.006;5.924;2023-03-05T04:04:38;101165.94;;;8.22;56.36
73842;BME280;62184;52.006;5.924;2023-03-05T04:07:05;101162.44;;;8.18;56.37
73842;BME280;62184;52.006;5.924;2023-03-05T04:09:31;101156.31;;;8.11;56.46
73842;BME280;62184;52.006;5.924;2023-03-05T04:11:58;101158.97;;;8.11;56.68
73842;BME280;62184;52.006;5.924;2023-03-05T04:14:24;101151.84;;;8.13;56.54
73842;BME280;62184;52.006;5.924;2023-03-05T04:16:51;101150.13;;;8.11;56.60
73842;BME280;62184;52.006;5.924;2023-03-05T04:19:17;101154.56;;;8.09;56.52
73842;BME280;62184;52.006;5.924;2023-03-05T04:21:46;101149.25;;;8.04;56.70
73842;BME280;62184;52.006;5.924;2023-03-05T04:24:13;101153.69;;;8.04;56.62
73842;BME280;62184;52.006;5.924;2023-03-05T04:26:39;101145.78;;;7.99;56.73
73842;BME280;62184;52.006;5.924;2023-03-05T04:29:06;101144.91;;;7.99;56.73
73842;BME280;62184;52.006;5.924;2023-03-05T04:31:32;101144.94;;;7.94;57.01
73842;BME280;62184;52.006;5.924;2023-03-05T04:33:59;101148.44;;;7.98;57.10
73842;BME280;62184;52.006;5.924;2023-03-05T04:36:25;101140.44;;;8.01;56.95
73842;BME280;62184;52.006;5.924;2023-03-05T04:38:54;101132.47;;;8.02;56.91
73842;BME280;62184;52.006;5.924;2023-03-05T04:41:21;101135.13;;;8.02;56.88
73842;BME280;62184;52.006;5.924;2023-03-05T04:43:47;101134.25;;;8.00;56.96
73842;BME280;62184;52.006;5.924;2023-03-05T04:46:14;101134.25;;;8.00;57.03
73842;BME280;62184;52.006;5.924;2023-03-05T04:48:40;101127.16;;;7.98;56.92
73842;BME280;62184;52.006;5.924;2023-03-05T04:51:07;101136.03;;;8.00;57.08
73842;BME280;62184;52.006;5.924;2023-03-05T04:53:33;101129.81;;;8.02;57.04
73842;BME280;62184;52.006;5.924;2023-03-05T04:56:03;101131.53;;;8.05;56.83
73842;BME280;62184;52.006;5.924;2023-03-05T04:58:30;101126.19;;;8.08;56.88
73842;BME280;62184;52.006;5.924;2023-03-05T05:00:59;101117.31;;;8.07;56.85
73842;BME280;62184;52.006;5.924;2023-03-05T05:03:26;101119.97;;;8.09;56.80
73842;BME280;62184;52.006;5.924;2023-03-05T05:05:53;101120.88;;;8.06;56.95
73842;BME280;62184;52.006;5.924;2023-03-05T05:08:20;101117.31;;;8.09;56.90
73842;BME280;62184;52.006;5.924;2023-03-05T05:10:54;101128.84;;;8.08;56.94
73842;BME280;62184;52.006;5.924;2023-03-05T05:13:25;101121.75;;;8.08;56.98
73842;BME280;62184;52.006;5.924;2023-03-05T05:15:52;101119.09;;;8.07;57.09
73842;BME280;62184;52.006;5.924;2023-03-05T05:18:19;101113.84;;;8.02;57.20
73842;BME280;62184;52.006;5.924;2023-03-05T05:20:45;101117.41;;;7.98;57.43
73842;BME280;62184;52.006;5.924;2023-03-05T05:23:12;101105.88;;;7.98;57.63
73842;BME280;62184;52.006;5.924;2023-03-05T05:25:39;101108.53;;;7.99;57.89
73842;BME280;62184;52.006;5.924;2023-03-05T05:28:06;101102.34;;;7.97;57.82
73842;BME280;62184;52.006;5.924;2023-03-05T05:30:35;101099.69;;;7.96;58.03
73842;BME280;62184;52.006;5.924;2023-03-05T05:33:02;101098.81;;;7.97;58.19
73842;BME280;62184;52.006;5.924;2023-03-05T05:35:28;101097.88;;;8.02;58.18
73842;BME280;62184;52.006;5.924;2023-03-05T05:37:55;101103.13;;;8.08;57.94
73842;BME280;62184;52.006;5.924;2023-03-05T05:40:21;101097.75;;;8.13;58.11
73842;BME280;62184;52.006;5.924;2023-03-05T05:42:48;101088.84;;;8.16;58.05
73842;BME280;62184;52.006;5.924;2023-03-05T05:45:14;101085.31;;;8.13;57.69
73842;BME280;62184;52.006;5.924;2023-03-05T05:47:43;101093.38;;;8.10;57.91
73842;BME280;62184;52.006;5.924;2023-03-05T05:50:10;101091.59;;;8.11;57.94
73842;BME280;62184;52.006;5.924;2023-03-05T05:52:37;101092.47;;;8.10;57.87
73842;BME280;62184;52.006;5.924;2023-03-05T05:55:05;101090.72;;;8.09;57.87
73842;BME280;62184;52.006;5.924;2023-03-05T05:57:33;101089.00;;;8.03;57.81
73842;BME280;62184;52.006;5.924;2023-03-05T05:59:59;101086.28;;;8.06;57.88
73842;BME280;62184;52.006;5.924;2023-03-05T06:02:26;101080.16;;;8.03;58.06
73842;BME280;62184;52.006;5.924;2023-03-05T06:04:55;101081.06;;;7.99;57.95
73842;BME280;62184;52.006;5.924;2023-03-05T06:07:22;101075.84;;;7.90;58.08
73842;BME280;62184;52.006;5.924;2023-03-05T06:09:48;101084.75;;;7.84;58.17
73842;BME280;62184;52.006;5.924;2023-03-05T06:12:15;101080.34;;;7.83;58.46
73842;BME280;62184;52.006;5.924;2023-03-05T06:14:41;101079.47;;;7.81;58.47
73842;BME280;62184;52.006;5.924;2023-03-05T06:17:08;101077.69;;;7.82;58.34
73842;BME280;62184;52.006;5.924;2023-03-05T06:19:34;101075.91;;;7.82;58.49
73842;BME280;62184;52.006;5.924;2023-03-05T06:22:03;101078.56;;;7.82;58.54
73842;BME280;62184;52.006;5.924;2023-03-05T06:24:30;101077.66;;;7.85;58.39
73842;BME280;62184;52.006;5.924;2023-03-05T06:26:56;101074.06;;;7.89;58.55
73842;BME280;62184;52.006;5.924;2023-03-05T06:29:23;101074.06;;;7.89;58.44
73842;BME280;62184;52.006;5.924;2023-03-05T06:31:49;101071.41;;;7.87;58.56
73842;BME280;62184;52.006;5.924;2023-03-05T06:34:16;101071.47;;;7.84;58.65
73842;BME280;62184;52.006;5.924;2023-03-05T06:36:42;101068.81;;;7.84;58.80
73842;BME280;62184;52.006;5.924;2023-03-05T06:39:11;101075.84;;;7.88;58.71
73842;BME280;62184;52.006;5.924;2023-03-05T06:41:38;101066.06;;;7.93;58.63
73842;BME280;62184;52.006;5.924;2023-03-05T06:44:04;101065.13;;;7.96;58.53
73842;BME280;62184;52.006;5.924;2023-03-05T06:46:33;101072.25;;;7.94;58.66
73842;BME280;62184;52.006;5.924;2023-03-05T06:49:02;101070.53;;;7.88;58.78
73842;BME280;62184;52.006;5.924;2023-03-05T06:51:30;101069.63;;;7.91;58.76
73842;BME280;62184;52.006;5.924;2023-03-05T06:54:00;101069.59;;;7.95;58.89
73842;BME280;62184;52.006;5.924;2023-03-05T06:56:30;101070.41;;;8.00;58.75
73842;BME280;62184;52.006;5.924;2023-03-05T06:58:58;101065.09;;;8.00;58.74
73842;BME280;62184;52.006;5.924;2023-03-05T07:01:24;101069.47;;;8.04;58.67
73842;BME280;62184;52.006;5.924;2023-03-05T07:03:52;101064.19;;;8.03;58.75
73842;BME280;62184;52.006;5.924;2023-03-05T07:06:20;101063.31;;;7.99;58.79
73842;BME280;62184;52.006;5.924;2023-03-05T07:08:47;101063.31;;;7.99;58.76
73842;BME280;62184;52.006;5.924;2023-03-05T07:11:16;101062.41;;;8.03;58.94
73842;BME280;62184;52.006;5.924;2023-03-05T07:13:47;101060.56;;;8.07;58.89
73842;BME280;62184;52.006;5.924;2023-03-05T07:16:16;101054.28;;;8.12;58.81
73842;BME280;62184;52.006;5.924;2023-03-05T07:18:45;101064.91;;;8.19;58.83
73842;BME280;62184;52.006;5.924;2023-03-05T07:21:15;101058.63;;;8.23;58.52
73842;BME280;62184;52.006;5.924;2023-03-05T07:23:43;101062.94;;;8.31;58.83
73842;BME280;62184;52.006;5.924;2023-03-05T07:26:10;101063.78;;;8.36;58.41
73842;BME280;62184;52.006;5.924;2023-03-05T07:28:37;101058.44;;;8.38;58.46
73842;BME280;62184;52.006;5.924;2023-03-05T07:31:10;101056.63;;;8.41;58.38
73842;BME280;62184;52.006;5.924;2023-03-05T07:33:38;101056.53;;;8.46;58.13
73842;BME280;62184;52.006;5.924;2023-03-05T07:36:07;101054.84;;;8.42;58.23
73842;BME280;62184;52.006;5.924;2023-03-05T07:38:35;101051.22;;;8.46;58.03
73842;BME280;62184;52.006;5.924;2023-03-05T07:41:02;101046.75;;;8.49;58.25
73842;BME280;62184;52.006;5.924;2023-03-05T07:43:29;101045.75;;;8.58;58.06
73842;BME280;62184;52.006;5.924;2023-03-05T07:45:55;101050.94;;;8.70;58.14
73842;BME280;62184;52.006;5.924;2023-03-05T07:48:25;101040.97;;;8.81;58.06
73842;BME280;62184;52.006;5.924;2023-03-05T07:50:59;101048.84;;;8.90;57.68
73842;BME280;62184;52.006;5.924;2023-03-05T07:53:26;101039.84;;;8.98;57.56
73842;BME280;62184;52.006;5.924;2023-03-05T07:55:53;101051.38;;;9.00;57.35
73842;BME280;62184;52.006;5.924;2023-03-05T07:58:20;101044.22;;;9.03;57.39
73842;BME280;62184;52.006;5.924;2023-03-05T08:00:46;101043.13;;;9.15;57.16
73842;BME280;62184;52.006;5.924;2023-03-05T08:03:13;101035.00;;;9.25;56.75
73842;BME280;62184;52.006;5.924;2023-03-05T08:05:42;101045.63;;;9.29;56.72
73842;BME280;62184;52.006;5.924;2023-03-05T08:08:09;101034.00;;;9.33;56.66
73842;BME280;62184;52.006;5.924;2023-03-05T08:10:36;101040.09;;;9.41;56.25
73842;BME280;62184;52.006;5.924;2023-03-05T08:13:03;101035.63;;;9.43;56.09
73842;BME280;62184;52.006;5.924;2023-03-05T08:15:30;101034.75;;;9.41;55.94
73842;BME280;62184;52.006;5.924;2023-03-05T08:17:57;101036.50;;;9.42;55.81
73842;BME280;62184;52.006;5.924;2023-03-05T08:20:24;101034.72;;;9.42;55.84
73842;BME280;62184;52.006;5.924;2023-03-05T08:22:53;101035.53;;;9.47;55.43
73842;BME280;62184;52.006;5.924;2023-03-05T08:25:20;101034.78;;;9.39;55.18
73842;BME280;62184;52.006;5.924;2023-03-05T08:27:47;101039.31;;;9.34;55.27
73842;BME280;62184;52.006;5.924;2023-03-05T08:30:16;101031.28;;;9.37;55.51
73842;BME280;62184;52.006;5.924;2023-03-05T08:32:45;101035.59;;;9.44;55.58
73842;BME280;62184;52.006;5.924;2023-03-05T08:35:13;101021.19;;;9.54;55.50
73842;BME280;62184;52.006;5.924;2023-03-05T08:37:40;101030.78;;;9.63;55.54
73842;BME280;62184;52.006;5.924;2023-03-05T08:40:10;101022.53;;;9.78;55.19
73842;BME280;62184;52.006;5.924;2023-03-05T08:42:37;101019.56;;;9.95;55.12
73842;BME280;62184;52.006;5.924;2023-03-05T08:45:05;101027.44;;;10.01;54.83
73842;BME280;62184;52.006;5.924;2023-03-05T08:47:33;101015.63;;;10.13;54.73
73842;BME280;62184;52.006;5.924;2023-03-05T08:49:59;101015.22;;;10.32;54.51
73842;BME280;62184;52.006;5.924;2023-03-05T08:52:26;101019.56;;;10.38;53.45
73842;BME280;62184;52.006;5.924;2023-03-05T08:54:52;101008.63;;;10.49;53.77
73842;BME280;62184;52.006;5.924;2023-03-05T08:57:21;101010.03;;;10.65;53.48
73842;BME280;62184;52.006;5.924;2023-03-05T08:59:48;101002.72;;;10.73;53.08
73842;BME280;62184;52.006;5.924;2023-03-05T09:02:14;101006.09;;;10.84;52.96
73842;BME280;62184;52.006;5.924;2023-03-05T09:04:41;101000.69;;;10.87;52.43
73842;BME280;62184;52.006;5.924;2023-03-05T09:07:07;100997.09;;;10.88;52.52
73842;BME280;62184;52.006;5.924;2023-03-05T09:09:34;100997.84;;;10.93;52.27
73842;BME280;62184;52.006;5.924;2023-03-05T09:12:01;101000.69;;;10.87;51.73
73842;BME280;62184;52.006;5.924;2023-03-05T09:14:30;100990.00;;;10.87;52.18
73842;BME280;62184;52.006;5.924;2023-03-05T09:16:57;100988.84;;;10.97;51.63
73842;BME280;62184;52.006;5.924;2023-03-05T09:19:24;100985.22;;;11.00;51.71
73842;BME280;62184;52.006;5.924;2023-03-05T09:21:50;100977.09;;;11.04;51.18
73842;BME280;62184;52.006;5.924;2023-03-05T09:24:17;100987.47;;;11.16;51.18
73842;BME280;62184;52.006;5.924;2023-03-05T09:26:43;100977.56;;;11.22;50.77
73842;BME280;62184;52.006;5.924;2023-03-05T09:29:10;100974.94;;;11.19;50.17
73842;BME280;62184;52.006;5.924;2023-03-05T09:31:39;100976.00;;;11.13;49.87
73842;BME280;62184;52.006;5.924;2023-03-05T09:34:05;100973.41;;;11.08;50.36
73842;BME280;62184;52.006;5.924;2023-03-05T09:36:32;100977.72;;;11.14;50.77
73842;BME280;62184;52.006;5.924;2023-03-05T09:38:59;100974.63;;;11.31;50.61
73842;BME280;62184;52.006;5.924;2023-03-05T09:41:32;100976.06;;;11.44;50.14
73842;BME280;62184;52.006;5.924;2023-03-05T09:44:21;100967.91;;;11.48;49.58
73842;BME280;62184;52.006;5.924;2023-03-05T09:47:07;100974.31;;;11.43;49.82
73842;BME280;62184;52.006;5.924;2023-03-05T09:49:52;100973.38;;;11.45;49.58
73842;BME280;62184;52.006;5.924;2023-03-05T09:52:30;100965.97;;;11.55;49.63
73842;BME280;62184;52.006;5.924;2023-03-05T09:55:12;100972.06;;;11.60;49.66
73842;BME280;62184;52.006;5.924;2023-03-05T09:57:45;100966.66;;;11.63;49.27
73842;BME280;62184;52.006;5.924;2023-03-05T10:00:25;100955.84;;;11.66;48.97
73842;BME280;62184;52.006;5.924;2023-03-05T10:03:04;100958.22;;;11.77;48.66
73842;BME280;62184;52.006;5.924;2023-03-05T10:05:47;100966.03;;;11.84;48.49
73842;BME280;62184;52.006;5.924;2023-03-05T10:08:23;100955.19;;;11.89;47.66
73842;BME280;62184;52.006;5.924;2023-03-05T10:10:58;100946.72;;;11.73;47.75
73842;BME280;62184;52.006;5.924;2023-03-05T10:13:35;100946.00;;;11.68;48.73
73842;BME280;62184;52.006;5.924;2023-03-05T10:16:33;100942.16;;;11.78;48.06
73842;BME280;62184;52.006;5.924;2023-03-05T10:19:40;100947.31;;;11.84;47.72
73842;BME280;62184;52.006;5.924;2023-03-05T10:22:30;100941.97;;;11.84;47.84
73842;BME280;62184;52.006;5.924;2023-03-05T10:25:12;100931.41;;;11.80;47.57
73842;BME280;62184;52.006;5.924;2023-03-05T10:27:47;100922.41;;;11.81;47.62
73842;BME280;62184;52.006;5.924;2023-03-05T10:30:47;100923.16;;;11.87;47.45
73842;BME280;62184;52.006;5.924;2023-03-05T10:33:31;100924.03;;;11.88;46.84
73842;BME280;62184;52.006;5.924;2023-03-05T10:36:15;100920.75;;;11.78;46.64
73842;BME280;62184;52.006;5.924;2023-03-05T10:39:12;100921.66;;;11.77;46.04
73842;BME280;62184;52.006;5.924;2023-03-05T10:42:01;100918.13;;;11.75;46.39
73842;BME280;62184;52.006;5.924;2023-03-05T10:44:41;100918.22;;;11.72;46.11
73842;BME280;62184;52.006;5.924;2023-03-05T10:47:15;100915.81;;;11.63;46.46
73842;BME280;62184;52.006;5.924;2023-03-05T10:49:50;100911.03;;;11.74;46.53
73842;BME280;62184;52.006;5.924;2023-03-05T10:52:24;100913.88;;;11.99;46.52
73842;BME280;62184;52.006;5.924;2023-03-05T10:54:56;100907.97;;;12.19;46.11
73842;BME280;62184;52.006;5.924;2023-03-05T10:57:24;100904.16;;;12.26;44.81
73842;BME280;62184;52.006;5.924;2023-03-05T10:59:55;100900.56;;;12.27;44.59
73842;BME280;62184;52.006;5.924;2023-03-05T11:02:26;100888.59;;;12.39;44.24
73842;BME280;62184;52.006;5.924;2023-03-05T11:04:53;100896.47;;;12.43;44.14
73842;BME280;62184;52.006;5.924;2023-03-05T11:07:37;100888.28;;;12.48;44.28
73842;BME280;62184;52.006;5.924;2023-03-05T11:10:16;100878.28;;;12.54;44.65
73842;BME280;62184;52.006;5.924;2023-03-05T11:12:44;100879.41;;;12.47;44.53
73842;BME280;62184;52.006;5.924;2023-03-05T11:15:27;100872.47;;;12.40;44.95
73842;BME280;62184;52.006;5.924;2023-03-05T11:18:16;100867.84;;;12.45;44.46
73842;BME280;62184;52.006;5.924;2023-03-05T11:20:44;100865.13;;;12.47;44.29
73842;BME280;62184;52.006;5.924;2023-03-05T11:23:15;100861.19;;;12.57;44.43
73842;BME280;62184;52.006;5.924;2023-03-05T11:25:57;100856.22;;;12.73;44.44
73842;BME280;62184;52.006;5.924;2023-03-05T11:28:29;100854.56;;;12.95;43.98
73842;BME280;62184;52.006;5.924;2023-03-05T11:31:00;100847.16;;;13.03;43.38
73842;BME280;62184;52.006;5.924;2023-03-05T11:33:30;100844.28;;;13.07;43.29
73842;BME280;62184;52.006;5.924;2023-03-05T11:36:21;100851.13;;;13.16;43.03
73842;BME280;62184;52.006;5.924;2023-03-05T11:38:54;100846.03;;;13.09;42.23
73842;BME280;62184;52.006;5.924;2023-03-05T11:41:27;100847.16;;;13.03;42.63
73842;BME280;62184;52.006;5.924;2023-03-05T11:43:59;100839.50;;;12.91;42.28
73842;BME280;62184;52.006;5.924;2023-03-05T11:46:29;100839.81;;;12.82;42.49
73842;BME280;62184;52.006;5.924;2023-03-05T11:49:04;100835.81;;;12.68;42.40
73842;BME280;62184;52.006;5.924;2023-03-05T11:51:39;100835.59;;;12.48;42.55
73842;BME280;62184;52.006;5.924;2023-03-05T11:54:17;100822.75;;;12.32;42.96
73842;BME280;62184;52.006;5.924;2023-03-05T11:56:50;100821.97;;;12.28;43.59
73842;BME280;62184;52.006;5.924;2023-03-05T11:59:18;100829.09;;;12.29;43.22
73842;BME280;62184;52.006;5.924;2023-03-05T12:01:50;100819.44;;;12.23;43.20
73842;BME280;62184;52.006;5.924;2023-03-05T12:04:20;100819.75;;;12.13;43.84
73842;BME280;62184;52.006;5.924;2023-03-05T12:06:48;100812.75;;;12.09;43.94
73842;BME280;62184;52.006;5.924;2023-03-05T12:09:24;100806.56;;;12.07;44.52
73842;BME280;62184;52.006;5.924;2023-03-05T12:12:03;100803.88;;;12.07;44.23
73842;BME280;62184;52.006;5.924;2023-03-05T12:14:41;100804.75;;;12.07;44.36
73842;BME280;62184;52.006;5.924;2023-03-05T12:17:17;100795.84;;;12.07;44.08
73842;BME280;62184;52.006;5.924;2023-03-05T12:19:53;100792.41;;;12.03;44.25
73842;BME280;62184;52.006;5.924;2023-03-05T12:22:33;100783.56;;;12.00;44.63
73842;BME280;62184;52.006;5.924;2023-03-05T12:25:24;100785.41;;;11.98;43.92
73842;BME280;62184;52.006;5.924;2023-03-05T12:27:52;100781.22;;;11.89;44.46
73842;BME280;62184;52.006;5.924;2023-03-05T12:30:53;100770.59;;;11.87;44.36
73842;BME280;62184;52.006;5.924;2023-03-05T12:33:34;100779.31;;;11.94;44.13
73842;BME280;62184;52.006;5.924;2023-03-05T12:36:33;100761.72;;;11.85;43.31
73842;BME280;62184;52.006;5.924;2023-03-05T12:42:45;100763.94;;;11.12;45.33
73842;BME280;62184;52.006;5.924;2023-03-05T12:45:30;100757.59;;;10.84;46.72
73842;BME280;62184;52.006;5.924;2023-03-05T12:50:59;100739.75;;;10.51;48.45
73842;BME280;62184;52.006;5.924;2023-03-05T12:53:26;100741.53;;;10.52;48.83
73842;BME280;62184;52.006;5.924;2023-03-05T12:55:57;100739.47;;;10.63;49.26
73842;BME280;62184;52.006;5.924;2023-03-05T12:58:35;100731.13;;;10.75;48.85
73842;BME280;62184;52.006;5.924;2023-03-05T13:01:15;100726.22;;;10.91;48.84
73842;BME280;62184;52.006;5.924;2023-03-05T13:03:57;100721.41;;;11.05;48.57
73842;BME280;62184;52.006;5.924;2023-03-05T13:06:28;100721.09;;;11.14;47.88
73842;BME280;62184;52.006;5.924;2023-03-05T13:08:58;100717.34;;;11.21;47.80
73842;BME280;62184;52.006;5.924;2023-03-05T13:11:27;100714.28;;;11.33;47.22
73842;BME280;62184;52.006;5.924;2023-03-05T13:14:00;100705.16;;;11.40;47.57
73842;BME280;62184;52.006;5.924;2023-03-05T13:16:29;100700.50;;;11.47;47.29
73842;BME280;62184;52.006;5.924;2023-03-05T13:19:02;100693.84;;;11.60;47.08
73842;BME280;62184;52.006;5.924;2023-03-05T13:21:30;100693.56;;;11.69;46.94